Ora Direzione Vento Velocita' Vento Media Vento Raffica Max. Temperatura Wind Chill Pioggia Pressione
03:28:49.0244 °(WSW)1.0 Kts0.6 Kts1.8 Kts2.8 °C2.8 °C0.0 mm1016.3 Hpa
03:07:03.0243 °(WSW)0.0 Kts0.2 Kts1.8 Kts2.8 °C2.8 °C0.0 mm1016.4 Hpa
02:47:18.0254 °(WSW)0.0 Kts0.4 Kts1.8 Kts2.9 °C2.9 °C0.0 mm1016.4 Hpa
02:27:24.0255 °(WSW)0.0 Kts0.0 Kts1.8 Kts2.8 °C2.8 °C0.0 mm1016.5 Hpa
02:07:31.0243 °(WSW)1.0 Kts0.4 Kts1.8 Kts2.3 °C2.3 °C0.0 mm1016.5 Hpa
01:47:19.0244 °(WSW)1.0 Kts0.2 Kts1.8 Kts2.3 °C2.3 °C0.0 mm1016.6 Hpa
01:27:46.0241 °(WSW)0.0 Kts0.0 Kts1.0 Kts2.4 °C2.4 °C0.0 mm1016.7 Hpa
01:07:59.0237 °(WSW)0.0 Kts0.0 Kts1.0 Kts2.8 °C2.8 °C0.0 mm1016.6 Hpa
00:48:16.0235 °(SW)0.0 Kts0.0 Kts1.0 Kts2.7 °C2.7 °C0.0 mm1016.7 Hpa
00:26:37.0241 °(WSW)0.0 Kts0.0 Kts1.0 Kts2.6 °C2.6 °C0.0 mm1016.6 Hpa
00:07:10.0240 °(WSW)1.0 Kts0.8 Kts1.0 Kts2.9 °C2.9 °C0.0 mm1016.5 Hpa
23:47:05.0238 °(WSW)0.0 Kts0.0 Kts4.7 Kts3.1 °C3.1 °C0.0 mm1016.4 Hpa
23:27:32.0238 °(WSW)1.0 Kts0.6 Kts4.7 Kts3.6 °C3.6 °C0.0 mm1016.5 Hpa
23:08:02.0240 °(WSW)1.0 Kts0.8 Kts4.7 Kts3.6 °C3.6 °C0.0 mm1016.5 Hpa
22:48:23.0238 °(WSW)1.0 Kts0.6 Kts4.7 Kts3.5 °C3.5 °C0.0 mm1016.3 Hpa
22:26:42.0247 °(WSW)0.0 Kts0.0 Kts4.7 Kts3.5 °C3.5 °C0.0 mm1016.4 Hpa
22:07:09.0247 °(WSW)0.0 Kts0.0 Kts4.7 Kts3.6 °C3.6 °C0.0 mm1016.2 Hpa
21:47:05.0252 °(WSW)0.0 Kts0.0 Kts4.7 Kts4.1 °C4.1 °C0.0 mm1016.5 Hpa
21:27:38.0252 °(WSW)0.0 Kts0.2 Kts4.7 Kts4.1 °C4.1 °C0.0 mm1016.1 Hpa
21:08:23.0255 °(WSW)0.0 Kts0.6 Kts4.7 Kts4.3 °C4.3 °C0.0 mm1016.0 Hpa